sensor_id;sensor_type;location;lat;lon;timestamp;temperature;humidity
420;DHT22;42600;54.408;13.016;2023-10-19T00:00:52;9.10;92.70
420;DHT22;42600;54.408;13.016;2023-10-19T00:03:22;9.10;92.70
420;DHT22;42600;54.408;13.016;2023-10-19T00:05:50;9.20;92.70
420;DHT22;42600;54.408;13.016;2023-10-19T00:08:16;9.20;92.70
420;DHT22;42600;54.408;13.016;2023-10-19T00:10:47;9.20;92.70
420;DHT22;42600;54.408;13.016;2023-10-19T00:13:15;9.30;92.70
420;DHT22;42600;54.408;13.016;2023-10-19T00:15:45;9.30;92.70
420;DHT22;42600;54.408;13.016;2023-10-19T00:18:17;9.40;92.70
420;DHT22;42600;54.408;13.016;2023-10-19T00:20:49;9.40;92.70
420;DHT22;42600;54.408;13.016;2023-10-19T00:23:20;9.40;92.70
420;DHT22;42600;54.408;13.016;2023-10-19T00:25:54;9.40;92.70
420;DHT22;42600;54.408;13.016;2023-10-19T00:28:20;9.40;92.70
420;DHT22;42600;54.408;13.016;2023-10-19T00:30:49;9.50;92.70
420;DHT22;42600;54.408;13.016;2023-10-19T00:33:16;9.50;92.70
420;DHT22;42600;54.408;13.016;2023-10-19T00:35:45;9.60;92.70
420;DHT22;42600;54.408;13.016;2023-10-19T00:38:24;9.60;92.70
420;DHT22;42600;54.408;13.016;2023-10-19T00:41:07;9.70;92.70
420;DHT22;42600;54.408;13.016;2023-10-19T00:43:40;9.70;92.70
420;DHT22;42600;54.408;13.016;2023-10-19T00:46:12;9.70;92.70
420;DHT22;42600;54.408;13.016;2023-10-19T00:48:48;9.70;92.70
420;DHT22;42600;54.408;13.016;2023-10-19T00:51:17;9.70;92.70
420;DHT22;42600;54.408;13.016;2023-10-19T00:54:00;9.70;92.70
420;DHT22;42600;54.408;13.016;2023-10-19T00:56:34;9.70;92.70
420;DHT22;42600;54.408;13.016;2023-10-19T00:59:01;9.70;92.70
420;DHT22;42600;54.408;13.016;2023-10-19T01:01:40;9.70;92.70
420;DHT22;42600;54.408;13.016;2023-10-19T01:04:09;9.70;92.70
420;DHT22;42600;54.408;13.016;2023-10-19T01:06:39;9.70;92.70
420;DHT22;42600;54.408;13.016;2023-10-19T01:09:09;9.70;92.70
420;DHT22;42600;54.408;13.016;2023-10-19T01:11:38;9.70;92.70
420;DHT22;42600;54.408;13.016;2023-10-19T01:14:18;9.70;92.70
420;DHT22;42600;54.408;13.016;2023-10-19T01:16:47;9.70;92.70
420;DHT22;42600;54.408;13.016;2023-10-19T01:19:15;9.70;92.70
420;DHT22;42600;54.408;13.016;2023-10-19T01:21:44;9.70;92.70
420;DHT22;42600;54.408;13.016;2023-10-19T01:24:18;9.70;92.70
420;DHT22;42600;54.408;13.016;2023-10-19T01:26:51;9.70;92.70
420;DHT22;42600;54.408;13.016;2023-10-19T01:29:19;9.70;92.70
420;DHT22;42600;54.408;13.016;2023-10-19T01:31:52;9.70;92.70
420;DHT22;42600;54.408;13.016;2023-10-19T01:34:21;9.70;92.70
420;DHT22;42600;54.408;13.016;2023-10-19T01:36:48;9.70;92.70
420;DHT22;42600;54.408;13.016;2023-10-19T01:39:17;9.80;92.70
420;DHT22;42600;54.408;13.016;2023-10-19T01:41:44;9.80;92.70
420;DHT22;42600;54.408;13.016;2023-10-19T01:44:12;9.80;92.70
420;DHT22;42600;54.408;13.016;2023-10-19T01:46:38;9.80;92.70
420;DHT22;42600;54.408;13.016;2023-10-19T01:49:06;9.80;92.70
420;DHT22;42600;54.408;13.016;2023-10-19T01:51:34;9.80;92.70
420;DHT22;42600;54.408;13.016;2023-10-19T01:54:04;9.80;92.70
420;DHT22;42600;54.408;13.016;2023-10-19T01:56:32;9.80;92.70
420;DHT22;42600;54.408;13.016;2023-10-19T01:59:02;9.80;92.70
420;DHT22;42600;54.408;13.016;2023-10-19T02:01:28;9.80;92.70
420;DHT22;42600;54.408;13.016;2023-10-19T02:03:57;9.80;92.70
420;DHT22;42600;54.408;13.016;2023-10-19T02:06:24;9.80;92.70
420;DHT22;42600;54.408;13.016;2023-10-19T02:09:01;9.80;92.70
420;DHT22;42600;54.408;13.016;2023-10-19T02:11:36;9.80;92.70
420;DHT22;42600;54.408;13.016;2023-10-19T02:14:07;9.80;92.70
420;DHT22;42600;54.408;13.016;2023-10-19T02:16:39;9.80;92.70
420;DHT22;42600;54.408;13.016;2023-10-19T02:19:06;9.80;92.70
420;DHT22;42600;54.408;13.016;2023-10-19T02:21:33;9.90;92.70
420;DHT22;42600;54.408;13.016;2023-10-19T02:24:05;9.90;92.70
420;DHT22;42600;54.408;13.016;2023-10-19T02:26:32;9.80;92.70
420;DHT22;42600;54.408;13.016;2023-10-19T02:29:01;9.80;92.70
420;DHT22;42600;54.408;13.016;2023-10-19T02:31:33;9.80;92.70
420;DHT22;42600;54.408;13.016;2023-10-19T02:33:59;9.80;92.70
420;DHT22;42600;54.408;13.016;2023-10-19T02:36:26;9.80;92.70
420;DHT22;42600;54.408;13.016;2023-10-19T02:38:54;9.80;92.70
420;DHT22;42600;54.408;13.016;2023-10-19T02:41:20;9.90;92.70
420;DHT22;42600;54.408;13.016;2023-10-19T02:43:47;9.90;92.70
420;DHT22;42600;54.408;13.016;2023-10-19T02:46:18;9.90;92.70
420;DHT22;42600;54.408;13.016;2023-10-19T02:48:44;9.90;92.70
420;DHT22;42600;54.408;13.016;2023-10-19T02:51:12;9.90;92.70
420;DHT22;42600;54.408;13.016;2023-10-19T02:53:39;9.90;92.70
420;DHT22;42600;54.408;13.016;2023-10-19T02:56:10;9.90;92.70
420;DHT22;42600;54.408;13.016;2023-10-19T02:58:37;9.90;92.70
420;DHT22;42600;54.408;13.016;2023-10-19T03:01:12;10.00;92.70
420;DHT22;42600;54.408;13.016;2023-10-19T03:03:40;10.00;92.70
420;DHT22;42600;54.408;13.016;2023-10-19T03:06:09;10.00;92.70
420;DHT22;42600;54.408;13.016;2023-10-19T03:08:36;10.00;92.70
420;DHT22;42600;54.408;13.016;2023-10-19T03:11:02;10.00;92.70
420;DHT22;42600;54.408;13.016;2023-10-19T03:13:30;10.00;92.70
420;DHT22;42600;54.408;13.016;2023-10-19T03:15:58;9.90;92.70
420;DHT22;42600;54.408;13.016;2023-10-19T03:18:25;10.00;92.70
420;DHT22;42600;54.408;13.016;2023-10-19T03:20:52;10.00;92.70
420;DHT22;42600;54.408;13.016;2023-10-19T03:23:19;10.00;92.70
420;DHT22;42600;54.408;13.016;2023-10-19T03:25:46;10.00;92.70
420;DHT22;42600;54.408;13.016;2023-10-19T03:28:20;10.00;92.70
420;DHT22;42600;54.408;13.016;2023-10-19T03:30:51;10.00;92.70
420;DHT22;42600;54.408;13.016;2023-10-19T03:33:20;10.00;92.70
420;DHT22;42600;54.408;13.016;2023-10-19T03:35:53;10.00;92.70
420;DHT22;42600;54.408;13.016;2023-10-19T03:38:20;10.00;92.70
420;DHT22;42600;54.408;13.016;2023-10-19T03:40:48;9.90;92.70
420;DHT22;42600;54.408;13.016;2023-10-19T03:43:18;9.90;92.70
420;DHT22;42600;54.408;13.016;2023-10-19T03:45:47;9.90;92.70
420;DHT22;42600;54.408;13.016;2023-10-19T03:48:18;9.90;92.70
420;DHT22;42600;54.408;13.016;2023-10-19T03:50:50;9.90;92.70
420;DHT22;42600;54.408;13.016;2023-10-19T03:53:19;9.90;92.70
420;DHT22;42600;54.408;13.016;2023-10-19T03:55:47;9.90;92.70
420;DHT22;42600;54.408;13.016;2023-10-19T03:58:15;9.90;92.70
420;DHT22;42600;54.408;13.016;2023-10-19T04:00:42;9.90;92.70
420;DHT22;42600;54.408;13.016;2023-10-19T04:03:09;9.90;92.70
420;DHT22;42600;54.408;13.016;2023-10-19T04:05:37;9.90;92.70
420;DHT22;42600;54.408;13.016;2023-10-19T04:08:06;9.90;92.70
420;DHT22;42600;54.408;13.016;2023-10-19T04:10:42;9.90;92.70
420;DHT22;42600;54.408;13.016;2023-10-19T04:13:13;9.80;92.70
420;DHT22;42600;54.408;13.016;2023-10-19T04:15:40;9.90;92.70
420;DHT22;42600;54.408;13.016;2023-10-19T04:18:07;9.90;92.70
420;DHT22;42600;54.408;13.016;2023-10-19T04:20:37;9.80;92.70
420;DHT22;42600;54.408;13.016;2023-10-19T04:23:21;9.80;92.70
420;DHT22;42600;54.408;13.016;2023-10-19T04:25:49;9.80;92.70
420;DHT22;42600;54.408;13.016;2023-10-19T04:28:16;9.80;92.70
420;DHT22;42600;54.408;13.016;2023-10-19T04:30:45;9.80;92.70
420;DHT22;42600;54.408;13.016;2023-10-19T04:33:14;9.80;92.70
420;DHT22;42600;54.408;13.016;2023-10-19T04:35:42;9.80;92.70
420;DHT22;42600;54.408;13.016;2023-10-19T04:38:09;9.80;92.70
420;DHT22;42600;54.408;13.016;2023-10-19T04:40:35;9.80;92.70
420;DHT22;42600;54.408;13.016;2023-10-19T04:43:04;9.80;92.70
420;DHT22;42600;54.408;13.016;2023-10-19T04:45:30;9.80;92.70
420;DHT22;42600;54.408;13.016;2023-10-19T04:47:57;9.80;92.70
420;DHT22;42600;54.408;13.016;2023-10-19T04:50:24;9.80;92.70
420;DHT22;42600;54.408;13.016;2023-10-19T04:52:51;9.80;92.70
420;DHT22;42600;54.408;13.016;2023-10-19T04:55:17;9.80;92.70
420;DHT22;42600;54.408;13.016;2023-10-19T04:57:44;9.80;92.70
420;DHT22;42600;54.408;13.016;2023-10-19T05:00:13;9.80;92.70
420;DHT22;42600;54.408;13.016;2023-10-19T05:02:41;9.80;92.70
420;DHT22;42600;54.408;13.016;2023-10-19T05:05:08;9.80;92.70
420;DHT22;42600;54.408;13.016;2023-10-19T05:07:34;9.80;92.70
420;DHT22;42600;54.408;13.016;2023-10-19T05:10:01;9.90;92.70
420;DHT22;42600;54.408;13.016;2023-10-19T05:12:30;9.90;92.70
420;DHT22;42600;54.408;13.016;2023-10-19T05:14:57;9.90;92.70
420;DHT22;42600;54.408;13.016;2023-10-19T05:17:25;9.90;92.70
420;DHT22;42600;54.408;13.016;2023-10-19T05:19:52;9.90;92.70
420;DHT22;42600;54.408;13.016;2023-10-19T05:22:19;9.90;92.70
420;DHT22;42600;54.408;13.016;2023-10-19T05:24:47;9.90;92.70
420;DHT22;42600;54.408;13.016;2023-10-19T05:27:14;9.90;92.70
420;DHT22;42600;54.408;13.016;2023-10-19T05:29:40;9.90;92.70
420;DHT22;42600;54.408;13.016;2023-10-19T05:32:07;9.90;92.70
420;DHT22;42600;54.408;13.016;2023-10-19T05:34:36;10.00;92.70
420;DHT22;42600;54.408;13.016;2023-10-19T05:37:02;10.00;92.70
420;DHT22;42600;54.408;13.016;2023-10-19T05:39:30;10.00;92.70
420;DHT22;42600;54.408;13.016;2023-10-19T05:41:59;10.00;92.70
420;DHT22;42600;54.408;13.016;2023-10-19T05:44:26;10.00;92.70
420;DHT22;42600;54.408;13.016;2023-10-19T05:46:52;10.00;92.70
420;DHT22;42600;54.408;13.016;2023-10-19T05:49:20;10.00;92.70
420;DHT22;42600;54.408;13.016;2023-10-19T05:51:48;10.00;92.70
420;DHT22;42600;54.408;13.016;2023-10-19T05:54:14;10.00;92.70
420;DHT22;42600;54.408;13.016;2023-10-19T05:56:42;10.00;92.70
420;DHT22;42600;54.408;13.016;2023-10-19T05:59:09;10.00;92.70
420;DHT22;42600;54.408;13.016;2023-10-19T06:01:36;10.00;92.70
420;DHT22;42600;54.408;13.016;2023-10-19T06:04:03;10.00;92.70
420;DHT22;42600;54.408;13.016;2023-10-19T06:06:30;10.00;92.70
420;DHT22;42600;54.408;13.016;2023-10-19T06:08:58;10.00;92.70
420;DHT22;42600;54.408;13.016;2023-10-19T06:11:29;10.00;92.70
420;DHT22;42600;54.408;13.016;2023-10-19T06:13:57;10.00;92.70
420;DHT22;42600;54.408;13.016;2023-10-19T06:16:24;10.00;92.70
420;DHT22;42600;54.408;13.016;2023-10-19T06:18:51;10.00;92.70
420;DHT22;42600;54.408;13.016;2023-10-19T06:21:18;10.00;92.70
420;DHT22;42600;54.408;13.016;2023-10-19T06:23:45;10.00;92.70
420;DHT22;42600;54.408;13.016;2023-10-19T06:26:13;10.00;92.70
420;DHT22;42600;54.408;13.016;2023-10-19T06:28:40;10.00;92.70
420;DHT22;42600;54.408;13.016;2023-10-19T06:31:07;10.00;92.70
420;DHT22;42600;54.408;13.016;2023-10-19T06:33:34;10.00;92.70
420;DHT22;42600;54.408;13.016;2023-10-19T06:36:01;10.00;92.70
420;DHT22;42600;54.408;13.016;2023-10-19T06:38:28;10.00;92.70
420;DHT22;42600;54.408;13.016;2023-10-19T06:40:56;10.00;92.70
420;DHT22;42600;54.408;13.016;2023-10-19T06:43:25;10.00;92.70
420;DHT22;42600;54.408;13.016;2023-10-19T06:45:54;10.00;92.70
420;DHT22;42600;54.408;13.016;2023-10-19T06:48:21;10.00;92.70
420;DHT22;42600;54.408;13.016;2023-10-19T06:50:47;10.00;92.70
420;DHT22;42600;54.408;13.016;2023-10-19T06:53:15;10.00;92.70
420;DHT22;42600;54.408;13.016;2023-10-19T06:55:42;10.00;92.70
420;DHT22;42600;54.408;13.016;2023-10-19T06:58:09;10.00;92.70
420;DHT22;42600;54.408;13.016;2023-10-19T07:00:39;10.00;92.70
420;DHT22;42600;54.408;13.016;2023-10-19T07:03:07;10.00;92.70
420;DHT22;42600;54.408;13.016;2023-10-19T07:05:34;10.00;92.70
420;DHT22;42600;54.408;13.016;2023-10-19T07:08:01;10.00;92.70
420;DHT22;42600;54.408;13.016;2023-10-19T07:10:28;10.00;92.70
420;DHT22;42600;54.408;13.016;2023-10-19T07:12:56;10.00;92.70
420;DHT22;42600;54.408;13.016;2023-10-19T07:15:23;10.00;92.70
420;DHT22;42600;54.408;13.016;2023-10-19T07:17:53;10.00;92.70
420;DHT22;42600;54.408;13.016;2023-10-19T07:20:20;10.00;92.70
420;DHT22;42600;54.408;13.016;2023-10-19T07:22:54;10.00;92.70
420;DHT22;42600;54.408;13.016;2023-10-19T07:25:21;10.00;92.70
420;DHT22;42600;54.408;13.016;2023-10-19T07:27:48;10.00;92.70
420;DHT22;42600;54.408;13.016;2023-10-19T07:30:15;10.00;92.70
420;DHT22;42600;54.408;13.016;2023-10-19T07:32:47;10.10;92.70
420;DHT22;42600;54.408;13.016;2023-10-19T07:35:18;10.10;92.70
420;DHT22;42600;54.408;13.016;2023-10-19T07:37:45;10.00;92.70
420;DHT22;42600;54.408;13.016;2023-10-19T07:40:13;10.00;92.70
420;DHT22;42600;54.408;13.016;2023-10-19T07:42:40;10.10;92.70
420;DHT22;42600;54.408;13.016;2023-10-19T07:45:08;10.10;92.70
420;DHT22;42600;54.408;13.016;2023-10-19T07:47:37;10.10;92.70
420;DHT22;42600;54.408;13.016;2023-10-19T07:50:06;10.10;92.70
420;DHT22;42600;54.408;13.016;2023-10-19T07:52:38;10.10;92.70
420;DHT22;42600;54.408;13.016;2023-10-19T07:55:06;10.10;92.70
420;DHT22;42600;54.408;13.016;2023-10-19T07:57:33;10.10;92.70
420;DHT22;42600;54.408;13.016;2023-10-19T08:00:01;10.10;92.70
420;DHT22;42600;54.408;13.016;2023-10-19T08:02:29;10.10;92.70
420;DHT22;42600;54.408;13.016;2023-10-19T08:04:56;10.10;92.70
420;DHT22;42600;54.408;13.016;2023-10-19T08:07:22;10.10;92.70
420;DHT22;42600;54.408;13.016;2023-10-19T08:09:53;10.10;92.70
420;DHT22;42600;54.408;13.016;2023-10-19T08:12:20;10.10;92.70
420;DHT22;42600;54.408;13.016;2023-10-19T08:14:47;10.10;92.70
420;DHT22;42600;54.408;13.016;2023-10-19T08:17:14;10.10;92.70
420;DHT22;42600;54.408;13.016;2023-10-19T08:19:42;10.10;92.70
420;DHT22;42600;54.408;13.016;2023-10-19T08:22:09;10.10;92.70
420;DHT22;42600;54.408;13.016;2023-10-19T08:24:35;10.10;92.70
420;DHT22;42600;54.408;13.016;2023-10-19T08:27:03;10.10;92.70
420;DHT22;42600;54.408;13.016;2023-10-19T08:29:31;10.10;92.70
420;DHT22;42600;54.408;13.016;2023-10-19T08:31:58;10.10;92.70
420;DHT22;42600;54.408;13.016;2023-10-19T08:34:24;10.10;92.70
420;DHT22;42600;54.408;13.016;2023-10-19T08:36:51;10.10;92.70
420;DHT22;42600;54.408;13.016;2023-10-19T08:39:19;10.20;92.70
420;DHT22;42600;54.408;13.016;2023-10-19T08:41:46;10.10;92.70
420;DHT22;42600;54.408;13.016;2023-10-19T08:44:16;10.10;92.70
420;DHT22;42600;54.408;13.016;2023-10-19T08:46:44;10.10;92.70
420;DHT22;42600;54.408;13.016;2023-10-19T08:49:14;10.20;92.70
420;DHT22;42600;54.408;13.016;2023-10-19T08:51:44;10.20;92.70
420;DHT22;42600;54.408;13.016;2023-10-19T08:54:12;10.20;92.70
420;DHT22;42600;54.408;13.016;2023-10-19T08:56:39;10.20;92.70
420;DHT22;42600;54.408;13.016;2023-10-19T08:59:07;10.20;92.70
420;DHT22;42600;54.408;13.016;2023-10-19T09:01:38;10.20;92.70
420;DHT22;42600;54.408;13.016;2023-10-19T09:04:05;10.20;92.70
420;DHT22;42600;54.408;13.016;2023-10-19T09:06:34;10.20;92.70
420;DHT22;42600;54.408;13.016;2023-10-19T09:09:07;10.20;92.70
420;DHT22;42600;54.408;13.016;2023-10-19T09:11:34;10.20;92.70
420;DHT22;42600;54.408;13.016;2023-10-19T09:14:01;10.20;92.70
420;DHT22;42600;54.408;13.016;2023-10-19T09:16:29;10.20;92.70
420;DHT22;42600;54.408;13.016;2023-10-19T09:18:57;10.30;92.70
420;DHT22;42600;54.408;13.016;2023-10-19T09:21:24;10.30;92.70
420;DHT22;42600;54.408;13.016;2023-10-19T09:23:51;10.30;92.70
420;DHT22;42600;54.408;13.016;2023-10-19T09:26:18;10.30;92.70
420;DHT22;42600;54.408;13.016;2023-10-19T09:28:48;10.30;92.70
420;DHT22;42600;54.408;13.016;2023-10-19T09:31:16;10.30;92.70
420;DHT22;42600;54.408;13.016;2023-10-19T09:33:45;10.30;92.70
420;DHT22;42600;54.408;13.016;2023-10-19T09:36:14;10.30;92.70
420;DHT22;42600;54.408;13.016;2023-10-19T09:38:45;10.30;92.70
420;DHT22;42600;54.408;13.016;2023-10-19T09:41:15;10.30;92.70
420;DHT22;42600;54.408;13.016;2023-10-19T09:43:44;10.30;92.70
420;DHT22;42600;54.408;13.016;2023-10-19T09:46:12;10.30;92.70
420;DHT22;42600;54.408;13.016;2023-10-19T09:48:47;10.30;92.70
420;DHT22;42600;54.408;13.016;2023-10-19T09:51:17;10.30;92.70
420;DHT22;42600;54.408;13.016;2023-10-19T09:53:51;10.30;92.70
420;DHT22;42600;54.408;13.016;2023-10-19T09:56:36;10.30;92.70
420;DHT22;42600;54.408;13.016;2023-10-19T09:59:05;10.30;92.70
420;DHT22;42600;54.408;13.016;2023-10-19T10:02:03;10.30;92.70
420;DHT22;42600;54.408;13.016;2023-10-19T10:04:34;10.30;92.70
420;DHT22;42600;54.408;13.016;2023-10-19T10:07:04;10.30;92.70
420;DHT22;42600;54.408;13.016;2023-10-19T10:09:35;10.30;92.70
420;DHT22;42600;54.408;13.016;2023-10-19T10:12:19;10.30;92.70
420;DHT22;42600;54.408;13.016;2023-10-19T10:14:58;10.30;92.70
420;DHT22;42600;54.408;13.016;2023-10-19T10:17:26;10.30;92.70
420;DHT22;42600;54.408;13.016;2023-10-19T10:19:55;10.30;92.70
420;DHT22;42600;54.408;13.016;2023-10-19T10:22:24;10.30;92.70
420;DHT22;42600;54.408;13.016;2023-10-19T10:24:54;10.30;92.70
420;DHT22;42600;54.408;13.016;2023-10-19T10:27:22;10.30;92.70
420;DHT22;42600;54.408;13.016;2023-10-19T10:29:56;10.30;92.70
420;DHT22;42600;54.408;13.016;2023-10-19T10:32:42;10.30;92.70
420;DHT22;42600;54.408;13.016;2023-10-19T10:35:09;10.40;92.70
420;DHT22;42600;54.408;13.016;2023-10-19T10:37:38;10.30;92.70
420;DHT22;42600;54.408;13.016;2023-10-19T10:40:06;10.30;92.70
420;DHT22;42600;54.408;13.016;2023-10-19T10:42:33;10.30;92.70
420;DHT22;42600;54.408;13.016;2023-10-19T10:45:01;10.30;92.70
420;DHT22;42600;54.408;13.016;2023-10-19T10:47:30;10.30;92.70
420;DHT22;42600;54.408;13.016;2023-10-19T10:50:00;10.30;92.70
420;DHT22;42600;54.408;13.016;2023-10-19T10:52:28;10.30;92.70
420;DHT22;42600;54.408;13.016;2023-10-19T10:55:00;10.30;92.70
420;DHT22;42600;54.408;13.016;2023-10-19T10:57:32;10.30;92.70
420;DHT22;42600;54.408;13.016;2023-10-19T11:00:06;10.30;92.70
420;DHT22;42600;54.408;13.016;2023-10-19T11:02:34;10.30;92.70
420;DHT22;42600;54.408;13.016;2023-10-19T11:05:01;10.40;92.70
420;DHT22;42600;54.408;13.016;2023-10-19T11:07:28;10.40;92.70
420;DHT22;42600;54.408;13.016;2023-10-19T11:09:55;10.30;92.70
420;DHT22;42600;54.408;13.016;2023-10-19T11:12:23;10.30;92.70
420;DHT22;42600;54.408;13.016;2023-10-19T11:14:53;10.30;92.70
420;DHT22;42600;54.408;13.016;2023-10-19T11:17:20;10.30;92.70
420;DHT22;42600;54.408;13.016;2023-10-19T11:19:53;10.30;92.70
420;DHT22;42600;54.408;13.016;2023-10-19T11:22:21;10.30;92.70
420;DHT22;42600;54.408;13.016;2023-10-19T11:24:50;10.30;92.70
420;DHT22;42600;54.408;13.016;2023-10-19T11:27:23;10.30;92.70
420;DHT22;42600;54.408;13.016;2023-10-19T11:29:56;10.30;92.70
420;DHT22;42600;54.408;13.016;2023-10-19T11:32:23;10.30;92.70
420;DHT22;42600;54.408;13.016;2023-10-19T11:34:51;10.30;92.70
420;DHT22;42600;54.408;13.016;2023-10-19T11:37:18;10.30;92.70
420;DHT22;42600;54.408;13.016;2023-10-19T11:39:45;10.30;92.70
420;DHT22;42600;54.408;13.016;2023-10-19T11:42:12;10.30;92.70
420;DHT22;42600;54.408;13.016;2023-10-19T11:44:40;10.30;92.70
420;DHT22;42600;54.408;13.016;2023-10-19T11:47:06;10.30;92.70
420;DHT22;42600;54.408;13.016;2023-10-19T11:49:33;10.30;92.70
420;DHT22;42600;54.408;13.016;2023-10-19T11:52:00;10.30;92.70
420;DHT22;42600;54.408;13.016;2023-10-19T11:54:27;10.30;92.70
420;DHT22;42600;54.408;13.016;2023-10-19T11:56:54;10.30;92.70
420;DHT22;42600;54.408;13.016;2023-10-19T11:59:21;10.30;92.70
420;DHT22;42600;54.408;13.016;2023-10-19T12:01:50;10.30;92.70
420;DHT22;42600;54.408;13.016;2023-10-19T12:04:16;10.30;92.70
420;DHT22;42600;54.408;13.016;2023-10-19T12:06:43;10.30;92.70
420;DHT22;42600;54.408;13.016;2023-10-19T12:09:11;10.30;92.70
420;DHT22;42600;54.408;13.016;2023-10-19T12:11:41;10.30;92.70
420;DHT22;42600;54.408;13.016;2023-10-19T12:14:07;10.30;92.70
420;DHT22;42600;54.408;13.016;2023-10-19T12:16:37;10.30;92.70
420;DHT22;42600;54.408;13.016;2023-10-19T12:19:06;10.30;92.70
420;DHT22;42600;54.408;13.016;2023-10-19T12:21:33;10.20;92.70
420;DHT22;42600;54.408;13.016;2023-10-19T12:24:03;10.20;92.70
420;DHT22;42600;54.408;13.016;2023-10-19T12:26:30;10.20;92.70
420;DHT22;42600;54.408;13.016;2023-10-19T12:28:57;10.20;92.70
420;DHT22;42600;54.408;13.016;2023-10-19T12:31:24;10.20;92.70
420;DHT22;42600;54.408;13.016;2023-10-19T12:33:51;10.20;92.70
420;DHT22;42600;54.408;13.016;2023-10-19T12:36:19;10.20;92.70
420;DHT22;42600;54.408;13.016;2023-10-19T12:38:57;10.20;92.70
420;DHT22;42600;54.408;13.016;2023-10-19T12:41:24;10.20;92.70
420;DHT22;42600;54.408;13.016;2023-10-19T12:43:51;10.20;92.70
420;DHT22;42600;54.408;13.016;2023-10-19T12:46:22;10.20;92.70
420;DHT22;42600;54.408;13.016;2023-10-19T12:48:50;10.10;92.70
420;DHT22;42600;54.408;13.016;2023-10-19T12:51:16;10.10;92.70
420;DHT22;42600;54.408;13.016;2023-10-19T12:53:49;10.10;92.70
420;DHT22;42600;54.408;13.016;2023-10-19T12:56:17;10.10;92.70
420;DHT22;42600;54.408;13.016;2023-10-19T12:58:43;10.10;92.70
420;DHT22;42600;54.408;13.016;2023-10-19T13:01:13;10.10;92.70
420;DHT22;42600;54.408;13.016;2023-10-19T13:03:43;10.10;92.70
420;DHT22;42600;54.408;13.016;2023-10-19T13:06:10;10.10;92.70
420;DHT22;42600;54.408;13.016;2023-10-19T13:08:37;10.10;92.70
420;DHT22;42600;54.408;13.016;2023-10-19T13:11:07;10.10;92.70
420;DHT22;42600;54.408;13.016;2023-10-19T13:13:35;10.10;92.70
420;DHT22;42600;54.408;13.016;2023-10-19T13:16:02;10.10;92.70
420;DHT22;42600;54.408;13.016;2023-10-19T13:18:31;10.10;92.70
420;DHT22;42600;54.408;13.016;2023-10-19T13:20:59;10.10;92.70
420;DHT22;42600;54.408;13.016;2023-10-19T13:23:30;10.10;92.70
420;DHT22;42600;54.408;13.016;2023-10-19T13:25:58;10.10;92.70
420;DHT22;42600;54.408;13.016;2023-10-19T13:28:35;10.10;92.70
420;DHT22;42600;54.408;13.016;2023-10-19T13:31:03;10.00;92.70
420;DHT22;42600;54.408;13.016;2023-10-19T13:33:30;10.00;92.70
420;DHT22;42600;54.408;13.016;2023-10-19T13:35:57;10.00;92.70
420;DHT22;42600;54.408;13.016;2023-10-19T13:38:24;10.00;92.70
420;DHT22;42600;54.408;13.016;2023-10-19T13:40:50;10.00;92.70
420;DHT22;42600;54.408;13.016;2023-10-19T13:43:18;10.00;92.70
420;DHT22;42600;54.408;13.016;2023-10-19T13:45:47;10.00;92.70
420;DHT22;42600;54.408;13.016;2023-10-19T13:48:14;9.90;92.70
420;DHT22;42600;54.408;13.016;2023-10-19T13:50:42;9.90;92.70
420;DHT22;42600;54.408;13.016;2023-10-19T13:53:11;9.90;92.70
420;DHT22;42600;54.408;13.016;2023-10-19T13:55:37;9.90;92.70
420;DHT22;42600;54.408;13.016;2023-10-19T13:58:04;9.90;92.70
420;DHT22;42600;54.408;13.016;2023-10-19T14:00:32;9.90;92.70
420;DHT22;42600;54.408;13.016;2023-10-19T14:03:02;9.90;92.70
420;DHT22;42600;54.408;13.016;2023-10-19T14:05:35;9.90;92.70
420;DHT22;42600;54.408;13.016;2023-10-19T14:08:03;9.90;92.70
420;DHT22;42600;54.408;13.016;2023-10-19T14:10:30;10.00;92.70
420;DHT22;42600;54.408;13.016;2023-10-19T14:12:57;10.00;92.70
420;DHT22;42600;54.408;13.016;2023-10-19T14:15:24;10.00;92.70
420;DHT22;42600;54.408;13.016;2023-10-19T14:17:51;10.00;92.70
420;DHT22;42600;54.408;13.016;2023-10-19T14:20:19;9.90;92.70
420;DHT22;42600;54.408;13.016;2023-10-19T14:22:48;9.90;92.70
420;DHT22;42600;54.408;13.016;2023-10-19T14:25:15;9.90;92.70
420;DHT22;42600;54.408;13.016;2023-10-19T14:27:46;9.90;92.70
420;DHT22;42600;54.408;13.016;2023-10-19T14:30:14;10.00;92.70
420;DHT22;42600;54.408;13.016;2023-10-19T14:32:42;9.90;92.70
420;DHT22;42600;54.408;13.016;2023-10-19T14:35:09;9.90;92.70
420;DHT22;42600;54.408;13.016;2023-10-19T14:37:39;10.00;92.70
420;DHT22;42600;54.408;13.016;2023-10-19T14:40:09;10.00;92.70
420;DHT22;42600;54.408;13.016;2023-10-19T14:42:37;10.00;92.70
420;DHT22;42600;54.408;13.016;2023-10-19T14:45:06;10.00;92.70
420;DHT22;42600;54.408;13.016;2023-10-19T14:47:35;10.00;92.70
420;DHT22;42600;54.408;13.016;2023-10-19T14:50:01;10.00;92.70
420;DHT22;42600;54.408;13.016;2023-10-19T14:52:28;10.00;92.70
420;DHT22;42600;54.408;13.016;2023-10-19T14:54:56;10.00;92.70
420;DHT22;42600;54.408;13.016;2023-10-19T14:57:25;10.00;92.70
420;DHT22;42600;54.408;13.016;2023-10-19T14:59:51;10.00;92.70
420;DHT22;42600;54.408;13.016;2023-10-19T15:02:18;10.00;92.70
420;DHT22;42600;54.408;13.016;2023-10-19T15:04:49;9.90;92.70
420;DHT22;42600;54.408;13.016;2023-10-19T15:07:15;10.00;92.70
420;DHT22;42600;54.408;13.016;2023-10-19T15:09:42;10.00;92.70
420;DHT22;42600;54.408;13.016;2023-10-19T15:12:10;10.00;92.70
420;DHT22;42600;54.408;13.016;2023-10-19T15:14:40;10.00;92.70
420;DHT22;42600;54.408;13.016;2023-10-19T15:17:08;10.00;92.70
420;DHT22;42600;54.408;13.016;2023-10-19T15:19:34;10.00;92.70
420;DHT22;42600;54.408;13.016;2023-10-19T15:22:01;10.00;92.70
420;DHT22;42600;54.408;13.016;2023-10-19T15:24:28;10.00;92.70
420;DHT22;42600;54.408;13.016;2023-10-19T15:26:54;10.00;92.70
420;DHT22;42600;54.408;13.016;2023-10-19T15:29:22;10.00;92.70
420;DHT22;42600;54.408;13.016;2023-10-19T15:31:49;10.00;92.70
420;DHT22;42600;54.408;13.016;2023-10-19T15:34:16;10.00;92.70
420;DHT22;42600;54.408;13.016;2023-10-19T15:36:45;10.10;92.70
420;DHT22;42600;54.408;13.016;2023-10-19T15:39:12;10.10;92.70
420;DHT22;42600;54.408;13.016;2023-10-19T15:41:38;10.10;92.70
420;DHT22;42600;54.408;13.016;2023-10-19T15:44:06;10.10;92.70
420;DHT22;42600;54.408;13.016;2023-10-19T15:46:34;10.10;92.70
420;DHT22;42600;54.408;13.016;2023-10-19T15:49:04;10.10;92.70
420;DHT22;42600;54.408;13.016;2023-10-19T15:51:33;10.10;92.70
420;DHT22;42600;54.408;13.016;2023-10-19T15:54:00;10.10;92.70
420;DHT22;42600;54.408;13.016;2023-10-19T15:56:30;10.10;92.70
420;DHT22;42600;54.408;13.016;2023-10-19T15:58:57;10.00;92.70
420;DHT22;42600;54.408;13.016;2023-10-19T16:01:23;10.00;92.70